createdAt,value
2023-04-02T00:00:20.207Z,56.42
2023-04-02T00:01:21.778Z,57.60
2023-04-02T00:01:53.877Z,57.60
2023-04-02T00:02:31.204Z,57.47
2023-04-02T00:03:08.470Z,56.83
2023-04-02T00:04:22.089Z,55.92
2023-04-02T00:05:30.518Z,56.28
2023-04-02T00:06:33.528Z,56.40
2023-04-02T00:07:30.826Z,55.90
2023-04-02T00:08:10.002Z,56.30
2023-04-02T00:08:41.971Z,57.05
2023-04-02T00:09:25.210Z,56.17
2023-04-02T00:09:58.106Z,57.03
2023-04-02T00:10:32.914Z,56.28
2023-04-02T00:11:06.700Z,55.67
2023-04-02T00:11:41.055Z,56.38
2023-04-02T00:12:19.059Z,56.88
2023-04-02T00:13:01.587Z,56.40
2023-04-02T00:13:36.528Z,56.22
2023-04-02T00:14:17.934Z,56.25
2023-04-02T00:14:53.333Z,56.80
2023-04-02T00:15:25.394Z,56.78
2023-04-02T00:15:59.988Z,56.20
2023-04-02T00:16:33.107Z,56.35
2023-04-02T00:17:06.302Z,56.75
2023-04-02T00:17:39.274Z,56.90
2023-04-02T00:18:15.123Z,56.53
2023-04-02T00:18:51.411Z,56.13
2023-04-02T00:19:30.628Z,57.60
2023-04-02T00:20:06.530Z,56.60
2023-04-02T00:20:42.033Z,55.63
2023-04-02T00:21:20.571Z,56.42
2023-04-02T00:21:54.500Z,56.08
2023-04-02T00:22:29.440Z,56.13
2023-04-02T00:23:04.144Z,56.63
2023-04-02T00:23:38.152Z,56.63
2023-04-02T00:24:16.615Z,55.63
2023-04-02T00:24:52.139Z,56.92
2023-04-02T00:25:27.991Z,56.13
2023-04-02T00:26:00.078Z,55.50
2023-04-02T00:26:35.045Z,56.50
2023-04-02T00:27:12.665Z,56.92
2023-04-02T00:27:44.662Z,56.63
2023-04-02T00:28:19.210Z,56.97
2023-04-02T00:28:52.813Z,56.90
2023-04-02T00:29:24.874Z,56.28
2023-04-02T00:29:58.225Z,56.03
2023-04-02T00:30:31.446Z,55.60
2023-04-02T00:31:04.035Z,56.00
2023-04-02T00:31:39.174Z,56.80
2023-04-02T00:32:21.398Z,57.00
2023-04-02T00:32:54.823Z,56.30
2023-04-02T00:33:28.570Z,56.28
2023-04-02T00:34:04.632Z,56.72
2023-04-02T00:34:37.911Z,56.30
2023-04-02T00:35:13.088Z,56.53
2023-04-02T00:35:46.399Z,57.00
2023-04-02T00:36:20.101Z,56.35
2023-04-02T00:36:54.399Z,56.80
2023-04-02T00:37:29.786Z,56.35
2023-04-02T00:38:02.404Z,56.65
2023-04-02T00:38:35.709Z,55.30
2023-04-02T00:39:13.523Z,56.40
2023-04-02T00:39:46.492Z,56.65
2023-04-02T00:40:24.106Z,56.05
2023-04-02T00:40:59.021Z,56.40
2023-04-02T00:41:36.204Z,56.22
2023-04-02T00:42:13.638Z,56.95
2023-04-02T00:42:46.508Z,56.20
2023-04-02T00:43:20.961Z,56.10
2023-04-02T00:43:54.658Z,56.30
2023-04-02T00:44:29.312Z,57.00
2023-04-02T00:45:04.230Z,56.25
2023-04-02T00:45:38.634Z,56.00
2023-04-02T00:46:15.116Z,56.42
2023-04-02T00:46:50.584Z,55.58
2023-04-02T00:47:25.084Z,55.83
2023-04-02T00:48:13.262Z,56.22
2023-04-02T00:48:51.510Z,56.25
2023-04-02T00:49:30.683Z,56.08
2023-04-02T00:50:09.082Z,56.35
2023-04-02T00:50:42.932Z,55.95
2023-04-02T00:51:19.782Z,56.58
2023-04-02T00:51:57.230Z,56.00
2023-04-02T00:52:31.993Z,56.72
2023-04-02T00:53:10.176Z,56.45
2023-04-02T00:53:45.315Z,56.67
2023-04-02T00:54:21.659Z,56.80
2023-04-02T00:55:01.121Z,57.58
2023-04-02T00:55:37.325Z,56.50
2023-04-02T00:56:16.761Z,56.28
2023-04-02T00:56:51.817Z,56.50
2023-04-02T00:57:28.286Z,57.20
2023-04-02T00:58:01.666Z,56.50
2023-04-02T00:58:36.582Z,57.22
2023-04-02T00:59:18.937Z,57.15
2023-04-02T00:59:59.264Z,56.67
2023-04-02T01:00:34.124Z,57.33
2023-04-02T01:01:17.150Z,57.00
2023-04-02T01:01:54.412Z,56.90
2023-04-02T01:02:32.274Z,57.53
2023-04-02T01:03:36.386Z,57.08
2023-04-02T01:04:28.461Z,57.70
2023-04-02T01:05:03.551Z,56.80
2023-04-02T01:05:36.057Z,56.58
2023-04-02T01:06:10.794Z,57.63
2023-04-02T01:06:43.968Z,56.70
2023-04-02T01:07:19.077Z,56.58
2023-04-02T01:08:01.905Z,57.08
2023-04-02T01:08:50.414Z,55.88
2023-04-02T01:09:33.212Z,57.53
2023-04-02T01:10:22.676Z,55.90
2023-04-02T01:11:03.227Z,56.65
2023-04-02T01:12:10.034Z,57.53
2023-04-02T01:12:54.726Z,56.88
2023-04-02T01:13:31.198Z,56.95
2023-04-02T01:14:11.589Z,57.05
2023-04-02T01:14:52.191Z,56.58
2023-04-02T01:15:30.347Z,55.92
2023-04-02T01:16:11.578Z,56.70
2023-04-02T01:16:54.500Z,57.03
2023-04-02T01:17:42.972Z,57.53
2023-04-02T01:18:50.346Z,57.80
2023-04-02T01:19:45.061Z,57.50
2023-04-02T01:20:37.874Z,57.85
2023-04-02T01:21:25.480Z,57.28
2023-04-02T01:22:01.901Z,56.25
2023-04-02T01:22:47.891Z,57.10
2023-04-02T01:23:25.932Z,55.95
2023-04-02T01:24:02.423Z,55.95
2023-04-02T01:24:37.208Z,57.13
2023-04-02T01:25:15.455Z,55.88
2023-04-02T01:25:53.829Z,56.30
2023-04-02T01:26:44.564Z,56.17
2023-04-02T01:27:20.894Z,56.83
2023-04-02T01:28:00.765Z,56.22
2023-04-02T01:28:52.117Z,56.05
2023-04-02T01:29:28.746Z,56.63
2023-04-02T01:30:03.229Z,56.58
2023-04-02T01:30:36.705Z,55.80
2023-04-02T01:31:11.562Z,56.72
2023-04-02T01:31:45.892Z,56.30
2023-04-02T01:32:21.653Z,56.15
2023-04-02T01:32:55.504Z,56.30
2023-04-02T01:33:30.772Z,56.40
2023-04-02T01:34:04.126Z,56.40
2023-04-02T01:34:38.103Z,55.90
2023-04-02T01:35:11.176Z,57.00
2023-04-02T01:35:47.274Z,55.30
2023-04-02T01:36:28.787Z,55.50
2023-04-02T01:37:16.798Z,56.97
2023-04-02T01:37:57.265Z,55.90
2023-04-02T01:38:37.137Z,55.50
2023-04-02T01:39:17.853Z,56.28
2023-04-02T01:40:04.950Z,56.47
2023-04-02T01:40:40.141Z,55.58
2023-04-02T01:41:19.836Z,55.70
2023-04-02T01:41:59.539Z,56.25
2023-04-02T01:42:35.066Z,56.40
2023-04-02T01:43:17.105Z,56.50
2023-04-02T01:43:56.858Z,55.47
2023-04-02T01:44:33.046Z,56.35
2023-04-02T01:45:08.299Z,56.25
2023-04-02T01:45:41.296Z,55.80
2023-04-02T01:46:27.925Z,55.65
2023-04-02T01:47:06.338Z,56.25
2023-04-02T01:47:39.401Z,56.65
2023-04-02T01:48:16.732Z,55.40
2023-04-02T01:48:49.692Z,55.33
2023-04-02T01:49:23.601Z,55.92
2023-04-02T01:49:59.497Z,55.38
2023-04-02T01:50:37.616Z,55.83
2023-04-02T01:51:27.024Z,56.45
2023-04-02T01:52:01.206Z,56.35
2023-04-02T01:52:40.728Z,55.80
2023-04-02T01:53:15.616Z,55.55
2023-04-02T01:53:48.611Z,55.42
2023-04-02T01:54:22.044Z,55.38
2023-04-02T01:54:54.145Z,56.20
2023-04-02T01:55:35.378Z,55.38
2023-04-02T01:56:07.521Z,55.42
2023-04-02T01:56:41.378Z,56.25
2023-04-02T01:57:14.872Z,54.95
2023-04-02T01:57:51.308Z,55.03
2023-04-02T01:58:25.980Z,55.20
2023-04-02T01:59:02.711Z,55.28
2023-04-02T01:59:36.530Z,55.45
2023-04-02T02:00:14.858Z,55.03
2023-04-02T02:00:53.073Z,55.40
2023-04-02T02:01:27.684Z,55.10
2023-04-02T02:02:02.798Z,55.63
2023-04-02T02:02:36.984Z,55.10
2023-04-02T02:03:11.455Z,55.90
2023-04-02T02:03:44.933Z,54.90
2023-04-02T02:04:19.406Z,55.88
2023-04-02T02:04:51.583Z,55.17
2023-04-02T02:05:23.915Z,55.45
2023-04-02T02:05:58.998Z,55.58
2023-04-02T02:06:31.419Z,55.00
2023-04-02T02:07:04.941Z,55.47
2023-04-02T02:07:37.095Z,55.95
2023-04-02T02:08:29.961Z,55.83
2023-04-02T02:09:04.183Z,55.22
2023-04-02T02:09:37.777Z,55.17
2023-04-02T02:10:14.415Z,55.65
2023-04-02T02:10:46.453Z,55.58
2023-04-02T02:11:22.834Z,55.20
2023-04-02T02:11:56.705Z,55.28
2023-04-02T02:12:29.723Z,56.03
2023-04-02T02:13:02.230Z,55.00
2023-04-02T02:13:34.257Z,55.60
2023-04-02T02:14:14.808Z,54.92
2023-04-02T02:14:47.537Z,54.33
2023-04-02T02:15:22.079Z,54.70
2023-04-02T02:15:58.888Z,55.22
2023-04-02T02:16:32.115Z,55.70
2023-04-02T02:17:13.338Z,54.75
2023-04-02T02:17:46.502Z,55.38
2023-04-02T02:18:23.375Z,55.15
2023-04-02T02:18:57.847Z,55.08
2023-04-02T02:19:35.715Z,54.90
2023-04-02T02:20:12.393Z,55.00
2023-04-02T02:20:44.740Z,54.70
2023-04-02T02:21:29.576Z,54.97
2023-04-02T02:22:08.959Z,55.28
2023-04-02T02:22:44.520Z,54.80
2023-04-02T02:23:17.904Z,55.00
2023-04-02T02:23:49.979Z,54.30
2023-04-02T02:24:24.176Z,55.42
2023-04-02T02:24:58.871Z,55.20
2023-04-02T02:25:33.516Z,55.30
2023-04-02T02:26:07.063Z,55.88
2023-04-02T02:26:41.283Z,55.60
2023-04-02T02:27:45.976Z,54.72
2023-04-02T02:28:24.440Z,56.35
2023-04-02T02:28:58.375Z,55.78
2023-04-02T02:29:34.034Z,55.80
2023-04-02T02:30:12.346Z,54.45
2023-04-02T02:30:47.720Z,55.72
2023-04-02T02:31:27.993Z,55.60
2023-04-02T02:32:02.928Z,55.72
2023-04-02T02:32:39.353Z,55.50
2023-04-02T02:33:18.692Z,55.45
2023-04-02T02:33:52.723Z,55.90
2023-04-02T02:34:34.692Z,55.60
2023-04-02T02:35:16.719Z,54.72
2023-04-02T02:35:53.944Z,56.15
2023-04-02T02:36:33.488Z,54.65
2023-04-02T02:37:12.779Z,55.17
2023-04-02T02:37:49.082Z,56.00
2023-04-02T02:38:41.553Z,55.63
2023-04-02T02:39:25.516Z,55.50
2023-04-02T02:39:59.509Z,55.05
2023-04-02T02:40:36.776Z,54.63
2023-04-02T02:41:17.513Z,56.63
2023-04-02T02:41:53.373Z,54.95
2023-04-02T02:42:31.643Z,54.97
2023-04-02T02:43:09.015Z,55.05
2023-04-02T02:43:46.606Z,55.40
2023-04-02T02:44:24.980Z,54.40
2023-04-02T02:45:00.956Z,56.15
2023-04-02T02:45:37.891Z,56.10
2023-04-02T02:46:16.656Z,55.42
2023-04-02T02:46:51.681Z,54.88
2023-04-02T02:47:28.276Z,55.83
2023-04-02T02:48:03.937Z,55.10
2023-04-02T02:48:39.080Z,54.95
2023-04-02T02:49:15.617Z,55.20
2023-04-02T02:49:51.804Z,54.97
2023-04-02T02:50:28.333Z,55.50
2023-04-02T02:51:01.902Z,56.30
2023-04-02T02:51:43.305Z,54.67
2023-04-02T02:52:21.460Z,55.22
2023-04-02T02:53:03.010Z,55.03
2023-04-02T02:53:49.291Z,55.13
2023-04-02T02:54:21.855Z,55.28
2023-04-02T02:54:57.516Z,53.95
2023-04-02T02:55:36.940Z,55.50
2023-04-02T02:56:21.656Z,54.50
2023-04-02T02:56:56.480Z,55.15
2023-04-02T02:57:33.433Z,56.08
2023-04-02T02:58:09.634Z,55.72
2023-04-02T02:58:58.123Z,56.25
2023-04-02T02:59:35.549Z,54.90
2023-04-02T03:00:13.119Z,54.70
2023-04-02T03:00:46.600Z,55.47
2023-04-02T03:01:19.157Z,55.95
2023-04-02T03:01:52.583Z,55.42
2023-04-02T03:02:27.387Z,56.35
2023-04-02T03:03:00.641Z,55.33
2023-04-02T03:03:36.418Z,55.63
2023-04-02T03:04:11.499Z,54.95
2023-04-02T03:04:47.647Z,55.55
2023-04-02T03:05:23.112Z,55.13
2023-04-02T03:06:03.573Z,55.05
2023-04-02T03:06:36.770Z,55.50
2023-04-02T03:07:09.113Z,54.60
2023-04-02T03:07:42.100Z,54.80
2023-04-02T03:08:19.303Z,54.45
2023-04-02T03:08:58.085Z,54.75
2023-04-02T03:09:42.216Z,55.35
2023-04-02T03:10:19.495Z,55.42
2023-04-02T03:10:55.990Z,55.20
2023-04-02T03:11:36.100Z,56.33
2023-04-02T03:12:26.439Z,55.70
2023-04-02T03:13:06.934Z,54.60
2023-04-02T03:13:42.037Z,55.50
2023-04-02T03:14:21.293Z,54.38
2023-04-02T03:14:58.639Z,54.95
2023-04-02T03:15:36.691Z,54.58
2023-04-02T03:16:13.870Z,55.67
2023-04-02T03:16:49.333Z,55.33
2023-04-02T03:17:28.057Z,55.38
2023-04-02T03:18:04.795Z,54.63
2023-04-02T03:18:45.622Z,55.20
2023-04-02T03:19:28.268Z,55.50
2023-04-02T03:20:06.651Z,55.53
2023-04-02T03:20:45.340Z,55.42
2023-04-02T03:21:26.414Z,54.30
2023-04-02T03:22:07.690Z,54.30
2023-04-02T03:22:49.108Z,54.53
2023-04-02T03:23:27.836Z,54.35
2023-04-02T03:24:04.571Z,54.75
2023-04-02T03:24:45.273Z,54.42
2023-04-02T03:25:28.562Z,54.17
2023-04-02T03:26:08.255Z,54.03
2023-04-02T03:26:43.777Z,53.33
2023-04-02T03:27:20.361Z,54.50
2023-04-02T03:27:59.260Z,54.30
2023-04-02T03:28:33.284Z,54.80
2023-04-02T03:29:13.896Z,53.95
2023-04-02T03:29:52.481Z,55.13
2023-04-02T03:30:30.583Z,55.65
2023-04-02T03:31:09.395Z,55.15
2023-04-02T03:31:43.830Z,54.45
2023-04-02T03:32:20.965Z,54.92
2023-04-02T03:32:58.256Z,55.28
2023-04-02T03:33:35.936Z,54.75
2023-04-02T03:34:17.856Z,53.92
2023-04-02T03:34:53.722Z,54.92
2023-04-02T03:35:31.711Z,55.15
2023-04-02T03:36:13.299Z,55.13
2023-04-02T03:36:56.782Z,54.55
2023-04-02T03:37:34.180Z,54.55
2023-04-02T03:38:14.453Z,54.13
2023-04-02T03:38:52.238Z,54.45
2023-04-02T03:39:31.566Z,54.42
2023-04-02T03:40:08.947Z,54.05
2023-04-02T03:40:43.942Z,54.60
2023-04-02T03:41:21.160Z,54.95
2023-04-02T03:41:56.929Z,55.67
2023-04-02T03:42:37.622Z,55.03
2023-04-02T03:43:18.630Z,54.90
2023-04-02T03:43:54.891Z,54.58
2023-04-02T03:44:31.835Z,54.53
2023-04-02T03:45:12.407Z,54.58
2023-04-02T03:45:49.608Z,53.80
2023-04-02T03:46:29.514Z,53.83
2023-04-02T03:47:10.254Z,54.38
2023-04-02T03:47:46.792Z,54.65
2023-04-02T03:48:25.884Z,53.80
2023-04-02T03:49:00.338Z,53.60
2023-04-02T03:49:39.633Z,54.13
2023-04-02T03:50:17.794Z,53.50
2023-04-02T03:50:55.736Z,54.78
2023-04-02T03:51:33.613Z,54.00
2023-04-02T03:52:11.953Z,54.45
2023-04-02T03:52:45.330Z,54.60
2023-04-02T03:53:24.384Z,54.45
2023-04-02T03:53:57.178Z,54.80
2023-04-02T03:54:29.484Z,54.20
2023-04-02T03:55:10.716Z,54.00
2023-04-02T03:55:43.201Z,55.20
2023-04-02T03:56:29.414Z,54.35
2023-04-02T03:57:02.838Z,55.22
2023-04-02T03:57:40.513Z,54.53
2023-04-02T03:58:18.679Z,54.15
2023-04-02T03:59:00.787Z,54.42
2023-04-02T03:59:39.728Z,54.85
2023-04-02T04:00:18.693Z,55.38
2023-04-02T04:01:00.013Z,53.42
2023-04-02T04:01:38.879Z,54.05
2023-04-02T04:02:31.753Z,54.47
2023-04-02T04:03:10.504Z,53.80
2023-04-02T04:03:45.331Z,54.47
2023-04-02T04:04:20.074Z,54.47
2023-04-02T04:04:55.718Z,53.97
2023-04-02T04:05:30.351Z,53.47
2023-04-02T04:06:08.467Z,54.63
2023-04-02T04:06:43.815Z,53.85
2023-04-02T04:07:28.139Z,53.60
2023-04-02T04:08:03.200Z,54.50
2023-04-02T04:08:42.519Z,54.08
2023-04-02T04:09:21.739Z,54.13
2023-04-02T04:09:54.625Z,54.25
2023-04-02T04:10:28.339Z,53.88
2023-04-02T04:11:09.459Z,54.10
2023-04-02T04:11:46.395Z,53.85
2023-04-02T04:12:26.903Z,54.33
2023-04-02T04:13:05.052Z,53.88
2023-04-02T04:13:44.785Z,53.40
2023-04-02T04:14:19.367Z,53.40
2023-04-02T04:14:56.366Z,54.33
2023-04-02T04:15:33.238Z,54.45
2023-04-02T04:16:12.083Z,54.00
2023-04-02T04:16:53.723Z,53.92
2023-04-02T04:17:34.902Z,53.13
2023-04-02T04:18:19.870Z,53.80
2023-04-02T04:18:57.095Z,54.00
2023-04-02T04:19:37.764Z,53.60
2023-04-02T04:20:22.016Z,54.20
2023-04-02T04:20:58.551Z,53.42
2023-04-02T04:21:37.807Z,54.00
2023-04-02T04:22:30.498Z,52.90
2023-04-02T04:23:11.603Z,54.08
2023-04-02T04:23:50.694Z,53.55
2023-04-02T04:24:28.108Z,53.67
2023-04-02T04:25:06.921Z,53.80
2023-04-02T04:25:40.178Z,53.55
2023-04-02T04:26:24.645Z,53.35
2023-04-02T04:27:09.692Z,53.42
2023-04-02T04:27:55.842Z,53.50
2023-04-02T04:28:38.233Z,53.40
2023-04-02T04:29:19.681Z,54.08
2023-04-02T04:29:57.701Z,54.38
2023-04-02T04:30:34.964Z,53.50
2023-04-02T04:31:17.973Z,53.13
2023-04-02T04:31:55.571Z,53.17
2023-04-02T04:32:34.791Z,53.20
2023-04-02T04:33:22.840Z,53.67
2023-04-02T04:34:05.049Z,54.05
2023-04-02T04:34:46.835Z,53.20
2023-04-02T04:35:26.132Z,53.03
2023-04-02T04:36:01.070Z,53.42
2023-04-02T04:36:53.751Z,53.63
2023-04-02T04:37:35.180Z,53.17
2023-04-02T04:38:15.606Z,52.97
2023-04-02T04:38:55.284Z,53.00
2023-04-02T04:39:35.966Z,54.17
2023-04-02T04:40:17.439Z,52.58
2023-04-02T04:40:54.192Z,52.58
2023-04-02T04:41:34.051Z,52.78
2023-04-02T04:42:08.648Z,52.83
2023-04-02T04:42:43.172Z,53.15
2023-04-02T04:43:25.366Z,52.92
2023-04-02T04:44:06.874Z,53.15
2023-04-02T04:44:43.604Z,52.72
2023-04-02T04:45:28.554Z,52.70
2023-04-02T04:46:06.114Z,52.72
2023-04-02T04:46:42.352Z,53.00
2023-04-02T04:47:20.416Z,52.42
2023-04-02T04:47:58.232Z,53.00
2023-04-02T04:48:36.806Z,52.58
2023-04-02T04:49:14.297Z,52.97
2023-04-02T04:49:50.754Z,52.80
2023-04-02T04:50:28.997Z,52.78
2023-04-02T04:51:03.903Z,52.92
2023-04-02T04:51:42.504Z,52.88
2023-04-02T04:52:19.064Z,53.40
2023-04-02T04:52:52.004Z,52.65
2023-04-02T04:53:28.002Z,52.85
2023-04-02T04:54:01.805Z,52.85
2023-04-02T04:54:39.058Z,52.22
2023-04-02T04:55:28.103Z,52.30
2023-04-02T04:56:18.229Z,51.93
2023-04-02T04:56:59.163Z,52.40
2023-04-02T04:57:35.031Z,53.30
2023-04-02T04:58:22.303Z,52.50
2023-04-02T04:59:00.703Z,52.42
2023-04-02T04:59:39.900Z,52.65
2023-04-02T05:00:18.271Z,52.63
2023-04-02T05:00:58.637Z,52.95
2023-04-02T05:01:37.654Z,52.80
2023-04-02T05:02:16.104Z,52.33
2023-04-02T05:02:54.696Z,52.92
2023-04-02T05:03:32.836Z,52.73
2023-04-02T05:04:14.042Z,52.53
2023-04-02T05:04:50.776Z,52.65
2023-04-02T05:05:29.226Z,52.53
2023-04-02T05:06:09.835Z,52.20
2023-04-02T05:06:51.856Z,52.22
2023-04-02T05:07:29.411Z,52.75
2023-04-02T05:08:09.761Z,52.90
2023-04-02T05:08:46.722Z,52.35
2023-04-02T05:09:26.333Z,52.63
2023-04-02T05:10:01.633Z,52.05
2023-04-02T05:10:45.153Z,53.28
2023-04-02T05:11:27.258Z,52.70
2023-04-02T05:12:09.666Z,52.63
2023-04-02T05:12:45.575Z,52.13
2023-04-02T05:13:24.994Z,52.95
2023-04-02T05:14:01.687Z,52.55
2023-04-02T05:14:38.883Z,52.28
2023-04-02T05:15:17.937Z,52.78
2023-04-02T05:15:56.363Z,52.45
2023-04-02T05:16:33.472Z,52.40
2023-04-02T05:17:11.922Z,52.35
2023-04-02T05:17:51.921Z,52.10
2023-04-02T05:18:30.264Z,52.25
2023-04-02T05:19:08.266Z,52.08
2023-04-02T05:19:44.529Z,53.33
2023-04-02T05:20:21.719Z,51.97
2023-04-02T05:21:04.163Z,52.90
2023-04-02T05:21:42.180Z,52.08
2023-04-02T05:22:24.234Z,52.58
2023-04-02T05:23:01.734Z,52.05
2023-04-02T05:23:37.532Z,52.05
2023-04-02T05:24:38.540Z,52.30
2023-04-02T05:25:18.697Z,52.85
2023-04-02T05:25:55.010Z,52.05
2023-04-02T05:26:32.108Z,51.83
2023-04-02T05:27:11.948Z,52.15
2023-04-02T05:27:52.649Z,52.10
2023-04-02T05:28:32.206Z,52.80
2023-04-02T05:29:11.951Z,52.30
2023-04-02T05:29:50.619Z,53.20
2023-04-02T05:30:39.803Z,52.55
2023-04-02T05:31:17.540Z,52.72
2023-04-02T05:31:56.882Z,53.13
2023-04-02T05:32:31.817Z,52.75
2023-04-02T05:33:16.626Z,52.17
2023-04-02T05:33:49.577Z,52.60
2023-04-02T05:34:25.030Z,51.92
2023-04-02T05:34:58.642Z,51.75
2023-04-02T05:35:34.043Z,51.83
2023-04-02T05:36:11.674Z,52.70
2023-04-02T05:36:53.796Z,52.50
2023-04-02T05:37:29.829Z,52.92
2023-04-02T05:38:04.688Z,52.67
2023-04-02T05:38:39.054Z,51.63
2023-04-02T05:39:12.620Z,52.17
2023-04-02T05:39:55.122Z,52.58
2023-04-02T05:40:31.649Z,52.35
2023-04-02T05:41:12.926Z,51.90
2023-04-02T05:41:47.554Z,52.03
2023-04-02T05:42:34.602Z,51.58
2023-04-02T05:43:18.810Z,52.03
2023-04-02T05:43:58.439Z,52.95
2023-04-02T05:44:32.990Z,52.63
2023-04-02T05:45:16.456Z,52.25
2023-04-02T05:45:53.693Z,51.97
2023-04-02T05:46:30.802Z,52.25
2023-04-02T05:47:07.100Z,52.40
2023-04-02T05:47:43.209Z,52.30
2023-04-02T05:48:26.654Z,51.70
2023-04-02T05:49:00.032Z,52.42
2023-04-02T05:49:41.641Z,51.90
2023-04-02T05:50:27.124Z,52.35
2023-04-02T05:51:04.810Z,52.95
2023-04-02T05:51:42.561Z,52.50
2023-04-02T05:52:19.840Z,52.17
2023-04-02T05:52:57.911Z,51.83
2023-04-02T05:53:34.705Z,51.88
2023-04-02T05:54:21.177Z,51.83
2023-04-02T05:54:58.306Z,52.15
2023-04-02T05:55:36.655Z,52.30
2023-04-02T05:56:16.670Z,52.13
2023-04-02T05:56:54.062Z,51.95
2023-04-02T05:57:44.407Z,51.75
2023-04-02T05:59:10.727Z,51.70
2023-04-02T05:59:48.358Z,53.35
2023-04-02T06:00:27.178Z,51.50
2023-04-02T06:01:15.402Z,52.72
2023-04-02T06:01:53.498Z,51.95
2023-04-02T06:02:36.336Z,51.72
2023-04-02T06:03:24.085Z,51.00
2023-04-02T06:04:05.680Z,51.17
2023-04-02T06:04:47.339Z,51.90
2023-04-02T06:05:22.408Z,51.70
2023-04-02T06:05:59.792Z,51.63
2023-04-02T06:06:46.289Z,52.08
2023-04-02T06:07:24.071Z,51.95
2023-04-02T06:08:03.508Z,52.08
2023-04-02T06:08:40.984Z,52.13
2023-04-02T06:09:19.298Z,51.65
2023-04-02T06:09:56.703Z,51.20
2023-04-02T06:10:31.465Z,51.95
2023-04-02T06:11:10.429Z,51.70
2023-04-02T06:11:46.399Z,52.33
2023-04-02T06:12:32.052Z,52.40
2023-04-02T06:13:07.683Z,51.90
2023-04-02T06:13:44.528Z,52.08
2023-04-02T06:14:18.719Z,52.08
2023-04-02T06:14:52.649Z,52.10
2023-04-02T06:15:25.904Z,51.55
2023-04-02T06:16:03.655Z,52.28
2023-04-02T06:16:38.497Z,53.10
2023-04-02T06:17:14.866Z,51.90
2023-04-02T06:17:49.238Z,51.88
2023-04-02T06:18:24.295Z,51.50
2023-04-02T06:18:59.037Z,52.40
2023-04-02T06:19:34.953Z,52.10
2023-04-02T06:20:09.785Z,51.92
2023-04-02T06:20:41.870Z,52.50
2023-04-02T06:21:17.624Z,51.95
2023-04-02T06:21:57.852Z,52.20
2023-04-02T06:22:35.892Z,52.10
2023-04-02T06:23:14.755Z,51.90
2023-04-02T06:23:54.341Z,51.55
2023-04-02T06:24:29.265Z,51.53
2023-04-02T06:25:06.048Z,52.28
2023-04-02T06:25:48.192Z,51.85
2023-04-02T06:26:26.310Z,51.47
2023-04-02T06:27:05.825Z,51.83
2023-04-02T06:27:39.796Z,51.80
2023-04-02T06:28:18.997Z,52.00
2023-04-02T06:29:01.701Z,52.17
2023-04-02T06:29:39.956Z,52.05
2023-04-02T06:30:18.680Z,52.33
2023-04-02T06:30:58.052Z,52.17
2023-04-02T06:31:38.348Z,52.53
2023-04-02T06:32:12.979Z,52.35
2023-04-02T06:32:48.876Z,51.60
2023-04-02T06:33:21.882Z,51.90
2023-04-02T06:33:56.217Z,52.55
2023-04-02T06:34:32.811Z,52.20
2023-04-02T06:35:12.596Z,51.78
2023-04-02T06:35:47.556Z,52.17
2023-04-02T06:36:24.393Z,51.80
2023-04-02T06:36:59.512Z,51.80
2023-04-02T06:37:36.670Z,52.00
2023-04-02T06:38:31.402Z,51.53
2023-04-02T06:39:08.802Z,51.78
2023-04-02T06:39:41.680Z,51.92
2023-04-02T06:40:33.123Z,52.17
2023-04-02T06:41:16.543Z,51.95
2023-04-02T06:42:14.964Z,51.85
2023-04-02T06:43:13.794Z,52.00
2023-04-02T06:44:28.078Z,51.90
2023-04-02T06:45:17.611Z,51.92
2023-04-02T06:46:00.876Z,51.25
2023-04-02T06:46:45.540Z,52.13
2023-04-02T06:47:27.458Z,51.78
2023-04-02T06:48:02.901Z,52.88
2023-04-02T06:48:49.428Z,52.30
2023-04-02T06:49:25.424Z,52.65
2023-04-02T06:50:12.636Z,51.75
2023-04-02T06:50:49.213Z,51.78
2023-04-02T06:51:25.056Z,52.15
2023-04-02T06:52:01.534Z,52.50
2023-04-02T06:52:40.372Z,52.33
2023-04-02T06:53:23.093Z,52.10
2023-04-02T06:53:56.617Z,51.97
2023-04-02T06:54:32.613Z,52.17
2023-04-02T06:55:35.719Z,52.08
2023-04-02T06:56:24.192Z,51.90
2023-04-02T06:56:58.346Z,51.97
2023-04-02T06:57:35.904Z,52.20
2023-04-02T06:58:10.690Z,52.25
2023-04-02T06:58:43.979Z,52.00
2023-04-02T06:59:21.396Z,52.38
2023-04-02T06:59:54.666Z,52.47
2023-04-02T07:00:40.948Z,51.88
2023-04-02T07:01:18.982Z,51.78
2023-04-02T07:01:54.903Z,52.70
2023-04-02T07:02:32.933Z,52.28
2023-04-02T07:03:13.060Z,52.20
2023-04-02T07:03:45.644Z,52.42
2023-04-02T07:04:30.777Z,52.05
2023-04-02T07:05:09.397Z,52.65
2023-04-02T07:05:45.984Z,51.95
2023-04-02T07:06:20.945Z,51.92
2023-04-02T07:06:56.163Z,52.30
2023-04-02T07:07:32.436Z,52.95
2023-04-02T07:08:08.112Z,52.70
2023-04-02T07:08:40.700Z,52.92
2023-04-02T07:09:14.682Z,52.67
2023-04-02T07:09:50.561Z,52.08
2023-04-02T07:10:23.532Z,52.10
2023-04-02T07:10:59.004Z,52.65
2023-04-02T07:11:32.003Z,52.63
2023-04-02T07:12:13.463Z,52.47
2023-04-02T07:12:47.211Z,52.22
2023-04-02T07:13:21.342Z,52.55
2023-04-02T07:13:54.461Z,52.72
2023-04-02T07:14:26.769Z,52.83
2023-04-02T07:14:59.109Z,52.47
2023-04-02T07:15:32.172Z,52.85
2023-04-02T07:16:05.508Z,53.10
2023-04-02T07:16:38.167Z,52.60
2023-04-02T07:17:17.876Z,53.10
2023-04-02T07:17:50.632Z,52.65
2023-04-02T07:18:27.098Z,52.67
2023-04-02T07:18:59.833Z,52.53
2023-04-02T07:19:35.180Z,52.67
2023-04-02T07:20:25.953Z,53.45
2023-04-02T07:20:58.814Z,52.92
2023-04-02T07:21:38.516Z,53.85
2023-04-02T07:22:11.851Z,52.50
2023-04-02T07:22:47.160Z,52.72
2023-04-02T07:23:21.382Z,53.35
2023-04-02T07:23:56.870Z,52.92
2023-04-02T07:24:30.405Z,52.72
2023-04-02T07:25:03.014Z,52.97
2023-04-02T07:25:36.475Z,52.95
2023-04-02T07:26:17.408Z,52.50
2023-04-02T07:26:52.573Z,52.63
2023-04-02T07:27:28.279Z,52.90
2023-04-02T07:28:01.897Z,52.40
2023-04-02T07:28:35.583Z,53.00
2023-04-02T07:29:08.282Z,53.38
2023-04-02T07:29:43.216Z,53.20
2023-04-02T07:30:17.016Z,52.92
2023-04-02T07:30:49.996Z,53.10
2023-04-02T07:31:24.830Z,53.20
2023-04-02T07:31:57.398Z,52.63
2023-04-02T07:32:29.974Z,52.53
2023-04-02T07:33:03.848Z,52.47
2023-04-02T07:33:36.178Z,52.80
2023-04-02T07:34:09.827Z,52.90
2023-04-02T07:34:42.974Z,52.75
2023-04-02T07:35:16.686Z,52.92
2023-04-02T07:35:57.009Z,52.97
2023-04-02T07:36:51.779Z,53.33
2023-04-02T07:37:24.887Z,53.05
2023-04-02T07:37:57.329Z,53.20
2023-04-02T07:38:30.514Z,52.88
2023-04-02T07:39:06.398Z,53.05
2023-04-02T07:39:40.763Z,53.17
2023-04-02T07:40:18.131Z,52.90
2023-04-02T07:40:54.126Z,53.40
2023-04-02T07:41:27.565Z,53.53
2023-04-02T07:42:02.171Z,53.03
2023-04-02T07:42:35.379Z,53.25
2023-04-02T07:43:08.221Z,53.05
2023-04-02T07:43:42.001Z,53.58
2023-04-02T07:44:15.209Z,53.65
2023-04-02T07:44:48.192Z,53.33
2023-04-02T07:45:22.018Z,53.30
2023-04-02T07:45:54.252Z,53.55
2023-04-02T07:46:27.457Z,53.15
2023-04-02T07:46:59.772Z,52.90
2023-04-02T07:47:32.048Z,53.03
2023-04-02T07:48:07.902Z,52.95
2023-04-02T07:48:40.945Z,53.20
2023-04-02T07:49:14.240Z,52.63
2023-04-02T07:49:47.316Z,53.08
2023-04-02T07:50:21.438Z,53.20
2023-04-02T07:50:55.478Z,54.03
2023-04-02T07:51:27.704Z,53.45
2023-04-02T07:52:01.285Z,53.28
2023-04-02T07:52:33.513Z,53.25
2023-04-02T07:53:07.183Z,53.90
2023-04-02T07:53:41.826Z,53.42
2023-04-02T07:54:14.217Z,54.20
2023-04-02T07:54:47.466Z,53.67
2023-04-02T07:55:19.431Z,53.42
2023-04-02T07:55:52.499Z,53.70
2023-04-02T07:56:27.347Z,53.25
2023-04-02T07:56:59.710Z,53.38
2023-04-02T07:57:32.218Z,53.78
2023-04-02T07:58:06.284Z,53.67
2023-04-02T07:58:38.396Z,53.72
2023-04-02T07:59:11.307Z,53.85
2023-04-02T07:59:44.409Z,53.70
2023-04-02T08:00:17.296Z,54.40
2023-04-02T08:00:49.249Z,53.70
2023-04-02T08:01:25.708Z,54.03
2023-04-02T08:01:58.046Z,54.35
2023-04-02T08:02:31.076Z,53.92
2023-04-02T08:03:04.657Z,55.08
2023-04-02T08:03:36.867Z,54.00
2023-04-02T08:04:20.313Z,54.63
2023-04-02T08:04:52.364Z,54.67
2023-04-02T08:05:26.408Z,54.03
2023-04-02T08:05:59.821Z,54.25
2023-04-02T08:06:31.817Z,54.17
2023-04-02T08:07:03.740Z,53.83
2023-04-02T08:07:36.711Z,54.35
2023-04-02T08:08:08.655Z,53.88
2023-04-02T08:08:40.788Z,54.17
2023-04-02T08:09:13.829Z,54.60
2023-04-02T08:09:45.918Z,53.42